createdAt,value
2023-05-04T00:00:07.799Z,51.06
2023-05-04T00:02:54.120Z,51.33
2023-05-04T00:05:39.951Z,51.29
2023-05-04T00:08:26.008Z,51.28
2023-05-04T00:11:12.126Z,51.16
2023-05-04T00:13:58.081Z,51.00
2023-05-04T00:16:44.255Z,51.38
2023-05-04T00:19:30.075Z,51.15
2023-05-04T00:22:16.345Z,51.65
2023-05-04T00:25:02.263Z,51.62
2023-05-04T00:27:48.033Z,51.60
2023-05-04T00:30:33.854Z,51.47
2023-05-04T00:33:19.848Z,51.76
2023-05-04T00:36:06.088Z,51.57
2023-05-04T00:38:54.402Z,51.52
2023-05-04T00:41:40.871Z,51.75
2023-05-04T00:44:26.616Z,51.66
2023-05-04T00:47:13.500Z,51.79
2023-05-04T00:49:59.713Z,51.77
2023-05-04T00:52:47.072Z,51.83
2023-05-04T00:55:32.793Z,51.86
2023-05-04T00:58:19.124Z,52.07
2023-05-04T01:01:05.290Z,51.75
2023-05-04T01:03:52.175Z,51.82
2023-05-04T01:06:40.947Z,52.12
2023-05-04T01:09:26.682Z,51.83
2023-05-04T01:12:22.672Z,52.10
2023-05-04T01:15:10.081Z,51.87
2023-05-04T01:17:55.964Z,52.10
2023-05-04T01:20:42.736Z,51.74
2023-05-04T01:23:28.709Z,52.12
2023-05-04T01:26:30.316Z,52.43
2023-05-04T01:29:35.096Z,52.70
2023-05-04T01:32:22.202Z,52.17
2023-05-04T01:35:08.876Z,52.31
2023-05-04T01:37:54.907Z,52.25
2023-05-04T01:40:41.324Z,52.36
2023-05-04T01:43:27.278Z,52.32
2023-05-04T01:46:13.243Z,52.38
2023-05-04T01:48:59.356Z,52.28
2023-05-04T01:51:46.929Z,52.49
2023-05-04T01:54:32.882Z,52.60
2023-05-04T01:57:18.910Z,52.61
2023-05-04T02:00:05.464Z,52.60
2023-05-04T02:03:01.060Z,52.77
2023-05-04T02:05:47.266Z,52.26
2023-05-04T02:08:35.131Z,52.63
2023-05-04T02:11:21.752Z,52.88
2023-05-04T02:14:07.923Z,52.66
2023-05-04T02:16:53.654Z,52.66
2023-05-04T02:19:39.387Z,53.07
2023-05-04T02:22:25.842Z,52.76
2023-05-04T02:25:12.073Z,52.75
2023-05-04T02:27:57.763Z,52.78
2023-05-04T02:30:43.692Z,53.02
2023-05-04T02:33:29.676Z,52.96
2023-05-04T02:36:15.611Z,53.07
2023-05-04T02:39:03.245Z,52.80
2023-05-04T02:41:48.963Z,52.98
2023-05-04T02:44:34.750Z,53.02
2023-05-04T02:47:20.534Z,53.13
2023-05-04T02:50:07.550Z,53.30
2023-05-04T02:52:53.590Z,53.18
2023-05-04T02:55:39.372Z,53.05
2023-05-04T02:58:25.077Z,53.15
2023-05-04T03:01:16.439Z,53.02
2023-05-04T03:04:03.456Z,53.45
2023-05-04T03:06:49.507Z,53.47
2023-05-04T03:09:35.848Z,53.19
2023-05-04T03:12:21.638Z,53.27
2023-05-04T03:15:08.254Z,53.28
2023-05-04T03:17:54.321Z,53.60
2023-05-04T03:20:41.099Z,53.41
2023-05-04T03:23:29.928Z,53.20
2023-05-04T03:26:15.810Z,53.50
2023-05-04T03:29:01.901Z,53.26
2023-05-04T03:31:48.325Z,53.35
2023-05-04T03:34:36.028Z,53.67
2023-05-04T03:37:24.496Z,53.47
2023-05-04T03:40:10.722Z,53.37
2023-05-04T03:42:57.788Z,53.46
2023-05-04T03:45:44.005Z,53.55
2023-05-04T03:48:29.749Z,53.42
2023-05-04T03:51:15.768Z,53.73
2023-05-04T03:54:02.144Z,53.75
2023-05-04T03:56:48.059Z,53.51
2023-05-04T03:59:36.760Z,53.68
2023-05-04T04:02:24.861Z,53.46
2023-05-04T04:05:10.825Z,53.66
2023-05-04T04:07:58.462Z,53.49
2023-05-04T04:10:45.930Z,53.80
2023-05-04T04:13:31.581Z,53.87
2023-05-04T04:16:17.322Z,53.86
2023-05-04T04:19:03.237Z,53.62
2023-05-04T04:21:49.046Z,53.38
2023-05-04T04:24:35.129Z,53.78
2023-05-04T04:27:20.898Z,53.67
2023-05-04T04:30:07.369Z,53.80
2023-05-04T04:32:54.865Z,53.80
2023-05-04T04:35:41.734Z,53.75
2023-05-04T04:38:27.894Z,53.71
2023-05-04T04:41:14.291Z,53.93
2023-05-04T04:44:00.114Z,54.00
2023-05-04T04:46:46.727Z,54.02
2023-05-04T04:49:32.721Z,53.66
2023-05-04T04:52:18.968Z,54.04
2023-05-04T04:55:05.473Z,53.92
2023-05-04T04:57:52.565Z,53.86
2023-05-04T05:00:40.850Z,53.77
2023-05-04T05:03:26.736Z,54.07
2023-05-04T05:06:13.797Z,54.14
2023-05-04T05:08:59.838Z,53.90
2023-05-04T05:11:45.897Z,53.77
2023-05-04T05:14:31.965Z,53.65
2023-05-04T05:17:19.215Z,53.66
2023-05-04T05:20:11.830Z,53.68
2023-05-04T05:23:00.417Z,53.97
2023-05-04T05:25:46.376Z,53.88
2023-05-04T05:28:32.496Z,53.63
2023-05-04T05:31:18.300Z,53.79
2023-05-04T05:34:04.157Z,54.21
2023-05-04T05:36:49.852Z,53.97
2023-05-04T05:39:37.063Z,53.96
2023-05-04T05:42:22.871Z,53.91
2023-05-04T05:45:10.343Z,53.93
2023-05-04T05:47:56.545Z,53.75
2023-05-04T05:50:42.257Z,54.07
2023-05-04T05:53:28.126Z,53.99
2023-05-04T05:56:14.902Z,53.91
2023-05-04T05:59:00.920Z,53.90
2023-05-04T06:01:48.028Z,54.01
2023-05-04T06:04:34.407Z,53.63
2023-05-04T06:07:21.743Z,53.55
2023-05-04T06:10:08.888Z,53.29
2023-05-04T06:12:54.740Z,53.21
2023-05-04T06:15:41.153Z,53.46
2023-05-04T06:18:27.241Z,53.33
2023-05-04T06:21:13.415Z,52.89
2023-05-04T06:23:59.574Z,52.90
2023-05-04T06:31:54.896Z,52.34
2023-05-04T06:34:41.116Z,52.50
2023-05-04T06:37:27.195Z,52.24
2023-05-04T06:40:14.082Z,51.85
2023-05-04T06:43:00.531Z,52.20
2023-05-04T06:45:46.391Z,52.04
2023-05-04T06:48:32.539Z,51.56
2023-05-04T06:51:18.218Z,51.70
2023-05-04T06:54:04.297Z,51.99
2023-05-04T06:56:51.537Z,51.70
2023-05-04T06:59:37.240Z,51.99
2023-05-04T07:02:23.184Z,51.87
2023-05-04T07:05:09.967Z,51.91
2023-05-04T07:07:56.424Z,52.06
2023-05-04T07:10:42.254Z,51.58
2023-05-04T07:13:28.498Z,51.68
2023-05-04T07:16:14.290Z,51.77
2023-05-04T07:19:00.240Z,51.78
2023-05-04T07:21:45.898Z,51.60
2023-05-04T07:24:31.944Z,51.60
2023-05-04T07:27:18.046Z,51.36
2023-05-04T07:30:06.761Z,51.64
2023-05-04T07:32:52.891Z,51.75
2023-05-04T07:35:38.699Z,51.67
2023-05-04T07:38:26.898Z,51.63
2023-05-04T07:41:13.027Z,51.72
2023-05-04T07:43:59.471Z,51.32
2023-05-04T07:46:45.305Z,51.38
2023-05-04T07:49:31.567Z,51.13
2023-05-04T07:52:17.297Z,51.57
2023-05-04T07:55:03.031Z,51.49
2023-05-04T07:57:49.122Z,51.28
2023-05-04T08:00:37.425Z,51.07
2023-05-04T08:03:23.524Z,51.06
2023-05-04T08:06:09.866Z,51.24
2023-05-04T08:08:55.955Z,51.26
2023-05-04T08:11:42.138Z,51.28
2023-05-04T08:14:28.165Z,51.42
2023-05-04T08:17:14.394Z,51.13
2023-05-04T08:20:00.382Z,51.17
2023-05-04T08:22:47.490Z,51.19
2023-05-04T08:25:33.288Z,51.21
2023-05-04T08:28:18.957Z,51.19
2023-05-04T08:31:04.902Z,50.88
2023-05-04T08:33:51.643Z,50.73
2023-05-04T08:36:37.512Z,50.90
2023-05-04T08:39:23.275Z,51.02
2023-05-04T08:42:09.879Z,51.09
2023-05-04T08:44:56.274Z,51.09
2023-05-04T08:47:43.571Z,51.10
2023-05-04T08:50:29.843Z,50.77
2023-05-04T08:53:18.624Z,50.65
2023-05-04T08:56:09.608Z,50.87
2023-05-04T08:59:01.798Z,50.60
2023-05-04T09:01:51.305Z,50.75
2023-05-04T09:04:37.742Z,50.47
2023-05-04T09:07:23.922Z,50.50
2023-05-04T09:10:10.200Z,50.65
2023-05-04T09:12:56.274Z,50.74
2023-05-04T09:15:42.450Z,50.81
2023-05-04T09:18:45.665Z,51.19
2023-05-04T09:21:32.220Z,50.89
2023-05-04T09:24:30.870Z,50.95
2023-05-04T09:27:18.281Z,50.55
2023-05-04T09:30:05.558Z,50.64
2023-05-04T09:32:51.685Z,50.33
2023-05-04T09:35:41.132Z,49.87
2023-05-04T09:38:27.564Z,50.07
2023-05-04T09:41:13.766Z,50.39
2023-05-04T09:43:59.653Z,50.94
2023-05-04T09:46:55.852Z,50.67
2023-05-04T09:49:41.571Z,50.82
2023-05-04T09:52:29.276Z,51.12
2023-05-04T09:55:17.061Z,51.42
2023-05-04T09:58:03.045Z,51.19
2023-05-04T10:00:49.141Z,51.39
2023-05-04T10:03:35.278Z,51.74
2023-05-04T10:06:22.063Z,51.62
2023-05-04T10:09:08.082Z,51.83
2023-05-04T10:11:54.069Z,51.94
2023-05-04T10:14:39.993Z,51.98
2023-05-04T10:17:48.081Z,52.42
2023-05-04T10:21:02.108Z,52.44
2023-05-04T10:24:00.329Z,52.44
2023-05-04T10:27:13.872Z,52.84
2023-05-04T10:30:01.426Z,52.70
2023-05-04T10:32:55.751Z,52.98
2023-05-04T10:35:54.946Z,53.25
2023-05-04T10:38:41.509Z,52.96
2023-05-04T10:41:27.385Z,53.07
2023-05-04T10:44:13.403Z,52.75
2023-05-04T10:47:08.912Z,52.82
2023-05-04T10:50:02.572Z,52.98
2023-05-04T10:52:49.786Z,52.56
2023-05-04T10:55:41.834Z,52.46
2023-05-04T10:58:30.623Z,52.14
2023-05-04T11:01:17.626Z,51.90
2023-05-04T11:04:03.825Z,51.70
2023-05-04T11:07:00.424Z,52.06
2023-05-04T11:09:46.209Z,51.60
2023-05-04T11:12:32.999Z,51.35
2023-05-04T11:15:19.477Z,51.80
2023-05-04T11:18:05.713Z,51.62
2023-05-04T11:20:51.735Z,51.67
2023-05-04T11:23:40.200Z,51.64
2023-05-04T11:26:26.645Z,51.46
2023-05-04T11:29:13.906Z,51.04
2023-05-04T11:31:59.733Z,50.75
2023-05-04T11:34:48.856Z,50.67
2023-05-04T11:37:43.158Z,50.58
2023-05-04T11:40:29.129Z,50.60
2023-05-04T11:43:16.145Z,50.51
2023-05-04T11:46:02.879Z,50.69
2023-05-04T11:48:50.095Z,50.96
2023-05-04T11:51:36.265Z,50.81
2023-05-04T11:54:22.382Z,50.75
2023-05-04T11:57:08.284Z,50.67
2023-05-04T11:59:54.777Z,50.69
2023-05-04T12:02:41.206Z,50.59
2023-05-04T12:05:28.678Z,50.46
2023-05-04T12:08:27.663Z,50.30
2023-05-04T12:11:27.627Z,50.13
2023-05-04T12:14:14.118Z,50.24
2023-05-04T12:17:04.670Z,50.15
2023-05-04T12:19:55.279Z,50.09
2023-05-04T12:22:41.453Z,49.91
2023-05-04T12:25:27.221Z,50.21
2023-05-04T12:28:13.509Z,50.51
2023-05-04T12:31:00.474Z,50.45
2023-05-04T12:33:46.771Z,50.87
2023-05-04T12:36:32.544Z,50.88
2023-05-04T12:39:18.499Z,51.09
2023-05-04T12:42:04.742Z,51.16
2023-05-04T12:44:51.331Z,51.26
2023-05-04T12:47:37.546Z,51.15
2023-05-04T12:50:23.503Z,51.01
2023-05-04T12:53:09.358Z,51.34
2023-05-04T12:55:55.859Z,51.50
2023-05-04T12:58:41.896Z,51.54
2023-05-04T13:01:31.922Z,51.78
2023-05-04T13:04:17.903Z,51.34
2023-05-04T13:07:04.123Z,51.33
2023-05-04T13:09:49.994Z,51.24
2023-05-04T13:12:36.632Z,51.17
2023-05-04T13:15:23.749Z,51.17
2023-05-04T13:18:09.909Z,51.38
2023-05-04T13:20:56.729Z,51.40
2023-05-04T13:23:42.750Z,51.61
2023-05-04T13:26:28.522Z,51.54
2023-05-04T13:29:14.314Z,51.77
2023-05-04T13:32:00.371Z,51.60
2023-05-04T13:34:47.755Z,51.48
2023-05-04T13:37:35.587Z,51.14
2023-05-04T13:40:22.152Z,51.01
2023-05-04T13:43:08.054Z,51.21
2023-05-04T13:45:54.004Z,51.38
2023-05-04T13:48:40.032Z,51.93
2023-05-04T13:51:25.960Z,51.43
2023-05-04T13:54:11.877Z,49.21
2023-05-04T13:56:57.618Z,47.18
2023-05-04T13:59:51.593Z,45.71
2023-05-04T14:02:46.474Z,44.91
2023-05-04T14:05:32.298Z,42.79
2023-05-04T14:08:21.313Z,41.29
2023-05-04T14:11:08.492Z,41.36
2023-05-04T14:13:56.111Z,42.12
2023-05-04T14:16:42.503Z,42.42
2023-05-04T14:19:28.791Z,43.17
2023-05-04T14:22:14.758Z,43.18
2023-05-04T14:25:00.872Z,43.78
2023-05-04T14:27:46.785Z,44.06
2023-05-04T14:30:33.751Z,44.02
2023-05-04T14:33:19.599Z,44.52
2023-05-04T14:36:05.915Z,44.67
2023-05-04T14:38:51.829Z,44.90
2023-05-04T14:41:38.573Z,45.02
2023-05-04T14:44:26.162Z,45.22
2023-05-04T14:47:11.965Z,45.48
2023-05-04T14:49:58.210Z,45.52
2023-05-04T14:52:44.609Z,45.45
2023-05-04T14:55:33.507Z,45.55
2023-05-04T14:58:19.606Z,45.88
2023-05-04T15:01:06.265Z,46.09
2023-05-04T15:03:52.581Z,46.32
2023-05-04T15:06:40.326Z,46.70
2023-05-04T15:09:26.421Z,46.69
2023-05-04T15:12:12.626Z,46.88
2023-05-04T15:14:58.720Z,46.71
2023-05-04T15:17:44.446Z,47.11
2023-05-04T15:20:30.537Z,46.87
2023-05-04T15:23:16.460Z,47.06
2023-05-04T15:26:02.591Z,47.02
2023-05-04T15:28:48.799Z,47.41
2023-05-04T15:31:34.738Z,47.06
2023-05-04T15:34:20.551Z,47.50
2023-05-04T15:37:06.677Z,47.56
2023-05-04T15:39:53.576Z,47.44
2023-05-04T15:42:39.490Z,47.61
2023-05-04T15:45:25.422Z,47.53
2023-05-04T15:48:11.407Z,47.52
2023-05-04T15:50:57.229Z,47.51
2023-05-04T15:53:42.974Z,47.31
2023-05-04T15:56:28.792Z,47.19
2023-05-04T15:59:17.377Z,47.39
2023-05-04T16:02:06.001Z,47.19
2023-05-04T16:04:51.719Z,47.41
2023-05-04T16:07:37.673Z,47.64
2023-05-04T16:10:23.996Z,47.53
2023-05-04T16:13:12.198Z,47.32
2023-05-04T16:15:58.402Z,47.64
2023-05-04T16:18:44.408Z,47.59
2023-05-04T16:21:30.484Z,47.40
2023-05-04T16:24:16.582Z,47.79
2023-05-04T16:27:03.488Z,47.99
2023-05-04T16:29:49.189Z,47.86
2023-05-04T16:32:34.953Z,48.05
2023-05-04T16:35:20.894Z,47.96
2023-05-04T16:38:07.127Z,48.03
2023-05-04T16:40:53.232Z,48.23
2023-05-04T16:43:39.010Z,48.28
2023-05-04T16:46:25.147Z,48.11
2023-05-04T16:49:12.549Z,48.15
2023-05-04T16:52:00.211Z,48.36
2023-05-04T16:54:46.359Z,48.27
2023-05-04T16:57:32.337Z,48.44
2023-05-04T17:00:18.561Z,48.42
2023-05-04T17:03:04.829Z,48.30
2023-05-04T17:05:51.615Z,48.53
2023-05-04T17:08:37.695Z,48.45
2023-05-04T17:11:24.129Z,48.66
2023-05-04T17:14:10.045Z,49.08
2023-05-04T17:16:56.116Z,48.71
2023-05-04T17:19:42.456Z,48.89
2023-05-04T17:22:28.499Z,49.09
2023-05-04T17:25:14.583Z,48.86
2023-05-04T17:28:00.393Z,49.24
2023-05-04T17:30:46.721Z,49.49
2023-05-04T17:33:32.642Z,49.10
2023-05-04T17:36:18.463Z,49.39
2023-05-04T17:39:04.705Z,49.21
2023-05-04T17:41:51.144Z,49.64
2023-05-04T17:44:36.998Z,49.42
2023-05-04T17:47:23.220Z,49.66
2023-05-04T17:50:09.824Z,49.46
2023-05-04T17:52:56.044Z,49.83
2023-05-04T17:55:42.461Z,49.86
2023-05-04T17:58:28.449Z,49.64
2023-05-04T18:01:14.598Z,49.99
2023-05-04T18:04:04.161Z,50.08
2023-05-04T18:06:50.909Z,49.92
2023-05-04T18:09:36.925Z,49.75
2023-05-04T18:12:23.219Z,49.91
2023-05-04T18:15:09.768Z,49.93
2023-05-04T18:17:55.778Z,49.63
2023-05-04T18:20:42.110Z,49.66
2023-05-04T18:23:28.010Z,49.90
2023-05-04T18:26:22.870Z,50.18
2023-05-04T18:29:18.358Z,50.30
2023-05-04T18:32:08.098Z,50.21
2023-05-04T18:34:54.954Z,50.26
2023-05-04T18:37:41.083Z,50.01
2023-05-04T18:40:27.229Z,50.11
2023-05-04T18:43:13.180Z,49.93
2023-05-04T18:46:06.715Z,49.89
2023-05-04T18:48:53.155Z,49.81
2023-05-04T18:51:41.926Z,49.97
2023-05-04T18:54:34.178Z,50.09
2023-05-04T18:57:20.710Z,49.96
2023-05-04T19:00:07.702Z,50.01
2023-05-04T19:02:54.157Z,50.02
2023-05-04T19:05:40.774Z,50.10
2023-05-04T19:08:27.065Z,50.19
2023-05-04T19:11:13.110Z,50.38
2023-05-04T19:13:59.492Z,50.48
2023-05-04T19:16:45.812Z,50.29
2023-05-04T19:19:32.107Z,49.90
2023-05-04T19:22:18.119Z,50.12
2023-05-04T19:25:04.696Z,50.12
2023-05-04T19:27:51.068Z,50.09
2023-05-04T19:30:38.278Z,50.34
2023-05-04T19:33:30.352Z,50.42
2023-05-04T19:36:23.110Z,50.82
2023-05-04T19:39:10.429Z,50.54
2023-05-04T19:41:56.477Z,50.38
2023-05-04T19:44:42.575Z,50.85
2023-05-04T19:47:28.979Z,50.75
2023-05-04T19:50:16.856Z,50.56
2023-05-04T19:53:03.271Z,50.72
2023-05-04T19:55:49.595Z,50.92
2023-05-04T19:58:36.933Z,50.79
2023-05-04T20:01:24.084Z,50.93
2023-05-04T20:04:12.871Z,50.81
2023-05-04T20:06:59.005Z,51.01
2023-05-04T20:09:45.069Z,51.19
2023-05-04T20:12:31.381Z,50.93
2023-05-04T20:15:17.923Z,51.05
2023-05-04T20:18:04.187Z,51.17
2023-05-04T20:20:52.412Z,51.21
2023-05-04T20:23:38.872Z,51.43
2023-05-04T20:26:25.113Z,51.32
2023-05-04T20:29:11.416Z,51.46
2023-05-04T20:31:57.585Z,51.76
2023-05-04T20:34:45.061Z,51.82
2023-05-04T20:37:30.719Z,51.88
2023-05-04T20:40:17.004Z,51.93
2023-05-04T20:43:02.598Z,51.76
2023-05-04T20:45:48.614Z,51.90
2023-05-04T20:48:35.596Z,51.95
2023-05-04T20:51:21.658Z,52.04
2023-05-04T20:54:07.503Z,51.93
2023-05-04T20:56:53.304Z,52.07
2023-05-04T20:59:39.293Z,51.98
2023-05-04T21:02:25.305Z,51.86
2023-05-04T21:05:11.529Z,52.25
2023-05-04T21:07:57.944Z,52.04
2023-05-04T21:10:44.018Z,52.02
2023-05-04T21:13:29.926Z,51.96
2023-05-04T21:16:16.190Z,52.15
2023-05-04T21:19:02.465Z,52.28
2023-05-04T21:21:49.405Z,52.53
2023-05-04T21:24:36.440Z,52.22
2023-05-04T21:27:22.334Z,52.59
2023-05-04T21:30:10.040Z,52.60
2023-05-04T21:32:56.428Z,52.64
2023-05-04T21:35:42.477Z,52.49
2023-05-04T21:38:28.782Z,52.45
2023-05-04T21:41:17.429Z,52.35
2023-05-04T21:44:03.178Z,52.50
2023-05-04T21:46:49.359Z,52.47
2023-05-04T21:49:35.444Z,52.67
2023-05-04T21:52:21.355Z,52.73
2023-05-04T21:55:07.719Z,52.81
2023-05-04T21:57:53.603Z,52.82
2023-05-04T22:00:39.761Z,52.96
2023-05-04T22:03:25.949Z,52.66
2023-05-04T22:06:12.158Z,52.97
2023-05-04T22:08:58.456Z,52.84
2023-05-04T22:11:44.322Z,53.04
2023-05-04T22:14:30.103Z,52.97
2023-05-04T22:17:16.215Z,53.11
2023-05-04T22:20:02.341Z,52.98
2023-05-04T22:22:48.100Z,53.10
2023-05-04T22:25:33.951Z,53.10
2023-05-04T22:28:19.820Z,52.73
2023-05-04T22:31:05.626Z,52.82
2023-05-04T22:33:51.503Z,53.04
2023-05-04T22:36:37.544Z,53.11
2023-05-04T22:39:23.383Z,53.05
2023-05-04T22:42:09.434Z,52.89
2023-05-04T22:44:55.711Z,52.83
2023-05-04T22:47:42.340Z,53.13
2023-05-04T22:50:27.966Z,53.12
2023-05-04T22:53:14.771Z,53.05
2023-05-04T22:56:01.002Z,53.41
2023-05-04T22:58:47.124Z,52.90
2023-05-04T23:01:35.226Z,53.19
2023-05-04T23:04:21.288Z,53.11
2023-05-04T23:07:07.264Z,53.12
2023-05-04T23:09:53.321Z,52.98
2023-05-04T23:12:39.172Z,53.28
2023-05-04T23:15:25.177Z,53.53
2023-05-04T23:18:10.935Z,53.33
2023-05-04T23:20:57.036Z,53.35
2023-05-04T23:23:43.081Z,53.41
2023-05-04T23:26:28.996Z,53.44
2023-05-04T23:29:14.910Z,53.20
2023-05-04T23:32:01.318Z,53.11
2023-05-04T23:34:47.703Z,53.36
2023-05-04T23:37:33.535Z,53.42
2023-05-04T23:40:20.017Z,52.94
2023-05-04T23:43:05.889Z,53.33
2023-05-04T23:46:02.146Z,53.13
2023-05-04T23:48:48.284Z,53.14
2023-05-04T23:51:34.089Z,53.25
2023-05-04T23:54:20.014Z,53.07
2023-05-04T23:57:08.610Z,53.15
2023-05-04T23:59:54.562Z,53.29
